Terminal Aerodrome Forecast
Issued by NWS Twin Cities, MN

Home | Current Version | Previous Version | Text Only | Print | Product List | Glossary Off
Versions: 1 2 3 4 5 6 7 8 9 10 11 12 13 14 15

136
FTUS43 KMPX 111120
TAFSTC
TAF
KSTC 111120Z 1112/1212 VRB03KT P6SM SKC
     FM111600 18005KT P6SM OVC050
     FM112100 21005KT P6SM OVC025
     FM120300 27004KT P6SM OVC015
     FM120700 31007KT P6SM BKN050=

USA.gov is the U.S. government's official web portal to all federal, state and local government web resources and services.